sensor_id;sensor_type;location;lat;lon;timestamp;P1;P2;P0
77239;PMS7003;66258;53.170;-2.240;2024-01-07T00:02:11;555.40;550.00;459.40
77239;PMS7003;66258;53.170;-2.240;2024-01-07T00:04:41;558.80;550.60;459.60
77239;PMS7003;66258;53.170;-2.240;2024-01-07T00:07:09;2150.40;2146.00;2089.00
77239;PMS7003;66258;53.170;-2.240;2024-01-07T00:09:37;806.40;791.40;705.20
77239;PMS7003;66258;53.170;-2.240;2024-01-07T00:12:06;154.60;147.20;43.40
77239;PMS7003;66258;53.170;-2.240;2024-01-07T00:14:34;1163.80;1158.60;1087.40
77239;PMS7003;66258;53.170;-2.240;2024-01-07T00:17:01;153.40;148.60;50.40
77239;PMS7003;66258;53.170;-2.240;2024-01-07T00:19:29;150.60;145.40;60.00
77239;PMS7003;66258;53.170;-2.240;2024-01-07T00:21:59;381.60;380.60;319.80
77239;PMS7003;66258;53.170;-2.240;2024-01-07T00:24:32;152.20;147.40;71.00
77239;PMS7003;66258;53.170;-2.240;2024-01-07T00:27:01;476.20;468.40;377.40
77239;PMS7003;66258;53.170;-2.240;2024-01-07T00:29:28;1979.00;1977.80;1915.60
77239;PMS7003;66258;53.170;-2.240;2024-01-07T00:31:56;1691.60;1689.80;1633.20
77239;PMS7003;66258;53.170;-2.240;2024-01-07T00:34:25;547.00;539.80;450.00
77239;PMS7003;66258;53.170;-2.240;2024-01-07T00:36:53;1478.00;1471.60;1399.40
77239;PMS7003;66258;53.170;-2.240;2024-01-07T00:39:21;2296.00;2293.00;2242.40
77239;PMS7003;66258;53.170;-2.240;2024-01-07T00:41:48;2286.80;2281.80;2228.60
77239;PMS7003;66258;53.170;-2.240;2024-01-07T00:44:17;2518.25;2513.50;2479.50
77239;PMS7003;66258;53.170;-2.240;2024-01-07T00:46:45;232.00;223.80;139.20
77239;PMS7003;66258;53.170;-2.240;2024-01-07T00:49:15;2149.00;2144.00;2102.80
77239;PMS7003;66258;53.170;-2.240;2024-01-07T00:51:43;2506.00;2502.40;2466.80
77239;PMS7003;66258;53.170;-2.240;2024-01-07T00:54:11;2337.25;2332.25;2295.50
77239;PMS7003;66258;53.170;-2.240;2024-01-07T00:56:39;2332.00;2325.50;2294.50
77239;PMS7003;66258;53.170;-2.240;2024-01-07T00:59:07;941.40;938.80;908.20
77239;PMS7003;66258;53.170;-2.240;2024-01-07T01:01:36;1765.25;1762.00;1736.50
77239;PMS7003;66258;53.170;-2.240;2024-01-07T01:04:03;967.75;964.00;932.50
77239;PMS7003;66258;53.170;-2.240;2024-01-07T01:06:31;167.80;163.60;114.40
77239;PMS7003;66258;53.170;-2.240;2024-01-07T01:08:59;150.75;146.75;100.00
77239;PMS7003;66258;53.170;-2.240;2024-01-07T01:11:26;175.00;166.00;135.00
77239;PMS7003;66258;53.170;-2.240;2024-01-07T01:13:54;164.40;159.00;118.80
77239;PMS7003;66258;53.170;-2.240;2024-01-07T01:16:23;158.40;152.60;110.20
77239;PMS7003;66258;53.170;-2.240;2024-01-07T01:18:52;242.00;233.25;200.75
77239;PMS7003;66258;53.170;-2.240;2024-01-07T01:21:20;112.00;106.50;72.00
77239;PMS7003;66258;53.170;-2.240;2024-01-07T01:23:48;102.00;90.00;60.00
77239;PMS7003;66258;53.170;-2.240;2024-01-07T01:26:15;111.00;102.00;72.75
77239;PMS7003;66258;53.170;-2.240;2024-01-07T01:28:46;123.00;121.00;92.50
77239;PMS7003;66258;53.170;-2.240;2024-01-07T01:31:14;160.20;152.20;117.00
77239;PMS7003;66258;53.170;-2.240;2024-01-07T01:33:41;158.25;150.00;120.50
77239;PMS7003;66258;53.170;-2.240;2024-01-07T01:36:10;164.75;152.50;113.00
77239;PMS7003;66258;53.170;-2.240;2024-01-07T01:38:38;142.25;137.50;107.75
77239;PMS7003;66258;53.170;-2.240;2024-01-07T01:41:06;122.00;117.75;86.75
77239;PMS7003;66258;53.170;-2.240;2024-01-07T01:43:32;161.60;153.60;120.20
77239;PMS7003;66258;53.170;-2.240;2024-01-07T01:46:02;129.75;120.25;89.00
77239;PMS7003;66258;53.170;-2.240;2024-01-07T01:48:29;147.75;141.50;109.75
77239;PMS7003;66258;53.170;-2.240;2024-01-07T01:50:57;125.25;105.75;84.25
77239;PMS7003;66258;53.170;-2.240;2024-01-07T01:53:26;169.00;160.00;125.50
77239;PMS7003;66258;53.170;-2.240;2024-01-07T01:55:53;168.50;166.50;132.75
77239;PMS7003;66258;53.170;-2.240;2024-01-07T01:58:23;170.40;160.20;134.00
77239;PMS7003;66258;53.170;-2.240;2024-01-07T02:00:50;166.80;162.00;118.40
77239;PMS7003;66258;53.170;-2.240;2024-01-07T02:03:17;145.25;138.75;103.25
77239;PMS7003;66258;53.170;-2.240;2024-01-07T02:05:45;138.00;136.25;102.50
77239;PMS7003;66258;53.170;-2.240;2024-01-07T02:08:17;138.00;131.00;99.00
77239;PMS7003;66258;53.170;-2.240;2024-01-07T02:10:48;118.25;106.75;78.50
77239;PMS7003;66258;53.170;-2.240;2024-01-07T02:13:15;1974.50;1970.25;1955.50
77239;PMS7003;66258;53.170;-2.240;2024-01-07T02:15:43;127.75;123.00;93.00
77239;PMS7003;66258;53.170;-2.240;2024-01-07T02:18:10;103.00;94.75;63.00
77239;PMS7003;66258;53.170;-2.240;2024-01-07T02:20:38;116.25;110.00;83.75
77239;PMS7003;66258;53.170;-2.240;2024-01-07T02:23:06;100.75;91.25;62.50
77239;PMS7003;66258;53.170;-2.240;2024-01-07T02:25:37;110.25;100.50;69.25
77239;PMS7003;66258;53.170;-2.240;2024-01-07T02:28:05;126.00;123.67;95.33
77239;PMS7003;66258;53.170;-2.240;2024-01-07T02:30:33;126.50;121.25;99.25
77239;PMS7003;66258;53.170;-2.240;2024-01-07T02:33:01;142.00;139.25;114.25
77239;PMS7003;66258;53.170;-2.240;2024-01-07T02:35:29;158.75;148.25;121.50
77239;PMS7003;66258;53.170;-2.240;2024-01-07T02:37:57;137.75;134.25;110.50
77239;PMS7003;66258;53.170;-2.240;2024-01-07T02:40:24;164.00;148.75;124.75
77239;PMS7003;66258;53.170;-2.240;2024-01-07T02:42:54;168.75;164.00;135.00
77239;PMS7003;66258;53.170;-2.240;2024-01-07T02:45:21;159.00;155.40;130.00
77239;PMS7003;66258;53.170;-2.240;2024-01-07T02:47:49;150.40;150.20;129.40
77239;PMS7003;66258;53.170;-2.240;2024-01-07T02:50:19;167.50;157.75;126.25
77239;PMS7003;66258;53.170;-2.240;2024-01-07T02:52:47;148.20;142.40;110.00
77239;PMS7003;66258;53.170;-2.240;2024-01-07T02:55:15;138.80;131.80;109.20
77239;PMS7003;66258;53.170;-2.240;2024-01-07T02:57:43;91.00;77.75;56.50
77239;PMS7003;66258;53.170;-2.240;2024-01-07T03:00:12;78.75;61.75;44.75
77239;PMS7003;66258;53.170;-2.240;2024-01-07T03:02:40;98.00;87.00;67.25
77239;PMS7003;66258;53.170;-2.240;2024-01-07T03:05:09;99.50;90.25;68.25
77239;PMS7003;66258;53.170;-2.240;2024-01-07T03:07:37;95.25;85.50;61.25
77239;PMS7003;66258;53.170;-2.240;2024-01-07T03:10:06;98.75;93.50;70.00
77239;PMS7003;66258;53.170;-2.240;2024-01-07T03:12:34;96.25;79.50;48.25
77239;PMS7003;66258;53.170;-2.240;2024-01-07T03:15:02;96.50;87.25;63.00
77239;PMS7003;66258;53.170;-2.240;2024-01-07T03:17:32;122.75;117.75;91.50
77239;PMS7003;66258;53.170;-2.240;2024-01-07T03:20:04;137.50;134.00;111.25
77239;PMS7003;66258;53.170;-2.240;2024-01-07T03:22:33;109.50;105.50;85.75
77239;PMS7003;66258;53.170;-2.240;2024-01-07T03:25:00;92.75;82.00;60.00
77239;PMS7003;66258;53.170;-2.240;2024-01-07T03:27:28;95.75;81.25;63.00
77239;PMS7003;66258;53.170;-2.240;2024-01-07T03:29:55;149.25;148.50;130.75
77239;PMS7003;66258;53.170;-2.240;2024-01-07T03:32:23;161.50;159.75;137.00
77239;PMS7003;66258;53.170;-2.240;2024-01-07T03:34:52;153.75;149.00;130.00
77239;PMS7003;66258;53.170;-2.240;2024-01-07T03:37:22;149.50;144.25;123.75
77239;PMS7003;66258;53.170;-2.240;2024-01-07T03:39:50;120.25;114.50;91.50
77239;PMS7003;66258;53.170;-2.240;2024-01-07T03:42:18;115.50;109.50;88.00
77239;PMS7003;66258;53.170;-2.240;2024-01-07T03:44:46;101.50;95.50;69.75
77239;PMS7003;66258;53.170;-2.240;2024-01-07T03:47:14;96.50;85.25;62.25
77239;PMS7003;66258;53.170;-2.240;2024-01-07T03:49:42;95.00;82.00;63.50
77239;PMS7003;66258;53.170;-2.240;2024-01-07T03:52:11;112.00;110.00;85.75
77239;PMS7003;66258;53.170;-2.240;2024-01-07T03:54:38;151.60;151.00;127.20
77239;PMS7003;66258;53.170;-2.240;2024-01-07T03:57:06;144.60;141.20;119.80
77239;PMS7003;66258;53.170;-2.240;2024-01-07T03:59:37;92.00;80.75;57.50
77239;PMS7003;66258;53.170;-2.240;2024-01-07T04:02:05;512.00;505.00;484.00
77239;PMS7003;66258;53.170;-2.240;2024-01-07T04:04:34;2575.20;2575.20;2567.00
77239;PMS7003;66258;53.170;-2.240;2024-01-07T04:07:01;126.25;124.75;108.75
77239;PMS7003;66258;53.170;-2.240;2024-01-07T04:09:31;163.67;159.33;143.00
77239;PMS7003;66258;53.170;-2.240;2024-01-07T04:11:58;412.40;406.00;385.20
77239;PMS7003;66258;53.170;-2.240;2024-01-07T04:14:26;193.20;190.20;167.20
77239;PMS7003;66258;53.170;-2.240;2024-01-07T04:16:53;170.50;165.50;146.00
77239;PMS7003;66258;53.170;-2.240;2024-01-07T04:19:21;155.00;150.00;130.00
77239;PMS7003;66258;53.170;-2.240;2024-01-07T04:21:49;120.50;115.50;97.75
77239;PMS7003;66258;53.170;-2.240;2024-01-07T04:24:16;134.00;127.00;103.25
77239;PMS7003;66258;53.170;-2.240;2024-01-07T04:26:45;109.67;104.33;80.00
77239;PMS7003;66258;53.170;-2.240;2024-01-07T04:29:13;84.75;67.50;47.50
77239;PMS7003;66258;53.170;-2.240;2024-01-07T04:31:41;83.67;65.33;46.33
77239;PMS7003;66258;53.170;-2.240;2024-01-07T04:34:09;713.25;708.50;690.50
77239;PMS7003;66258;53.170;-2.240;2024-01-07T04:36:36;85.50;70.00;49.00
77239;PMS7003;66258;53.170;-2.240;2024-01-07T04:39:14;83.25;69.00;60.00
77239;PMS7003;66258;53.170;-2.240;2024-01-07T04:41:42;76.00;60.75;40.00
77239;PMS7003;66258;53.170;-2.240;2024-01-07T04:44:14;76.50;62.50;42.25
77239;PMS7003;66258;53.170;-2.240;2024-01-07T04:46:41;1097.75;1093.75;1080.00
77239;PMS7003;66258;53.170;-2.240;2024-01-07T04:49:12;1922.50;1922.50;1915.00
77239;PMS7003;66258;53.170;-2.240;2024-01-07T04:51:40;142.00;139.25;122.00
77239;PMS7003;66258;53.170;-2.240;2024-01-07T04:54:08;151.00;146.50;124.25
77239;PMS7003;66258;53.170;-2.240;2024-01-07T04:56:36;1105.25;1104.25;1093.50
77239;PMS7003;66258;53.170;-2.240;2024-01-07T04:59:03;100.50;93.50;84.50
77239;PMS7003;66258;53.170;-2.240;2024-01-07T05:01:35;80.25;64.25;43.00
77239;PMS7003;66258;53.170;-2.240;2024-01-07T05:04:03;2118.67;2117.33;2107.67
77239;PMS7003;66258;53.170;-2.240;2024-01-07T05:06:31;2529.00;2529.00;2520.00
77239;PMS7003;66258;53.170;-2.240;2024-01-07T05:08:58;200.00;195.25;175.50
77239;PMS7003;66258;53.170;-2.240;2024-01-07T05:11:26;4151.25;4151.25;4151.25
77239;PMS7003;66258;53.170;-2.240;2024-01-07T05:13:53;4088.50;4088.50;4088.50
77239;PMS7003;66258;53.170;-2.240;2024-01-07T05:16:21;4070.50;4070.50;4070.25
77239;PMS7003;66258;53.170;-2.240;2024-01-07T05:18:49;4182.50;4182.50;4182.50
77239;PMS7003;66258;53.170;-2.240;2024-01-07T05:21:18;3800.25;3800.25;3798.00
77239;PMS7003;66258;53.170;-2.240;2024-01-07T05:23:46;4154.25;4154.25;4154.25
77239;PMS7003;66258;53.170;-2.240;2024-01-07T05:26:14;4161.50;4161.50;4161.50
77239;PMS7003;66258;53.170;-2.240;2024-01-07T05:28:41;3838.00;3837.25;3835.00
77239;PMS7003;66258;53.170;-2.240;2024-01-07T05:31:13;1538.00;1538.00;1526.25
77239;PMS7003;66258;53.170;-2.240;2024-01-07T05:33:41;1352.67;1344.33;1327.00
77239;PMS7003;66258;53.170;-2.240;2024-01-07T05:36:11;3569.00;3569.00;3565.50
77239;PMS7003;66258;53.170;-2.240;2024-01-07T05:38:39;4091.00;4091.00;4091.00
77239;PMS7003;66258;53.170;-2.240;2024-01-07T05:41:08;4203.50;4203.50;4203.50
77239;PMS7003;66258;53.170;-2.240;2024-01-07T05:43:36;3760.33;3758.67;3757.33
77239;PMS7003;66258;53.170;-2.240;2024-01-07T05:46:05;4179.33;4179.33;4179.33
77239;PMS7003;66258;53.170;-2.240;2024-01-07T05:48:40;4161.50;4161.50;4161.50
77239;PMS7003;66258;53.170;-2.240;2024-01-07T05:51:08;4232.00;4232.00;4232.00
77239;PMS7003;66258;53.170;-2.240;2024-01-07T05:53:37;4245.75;4245.75;4245.75
77239;PMS7003;66258;53.170;-2.240;2024-01-07T05:56:05;3816.67;3816.67;3815.00
77239;PMS7003;66258;53.170;-2.240;2024-01-07T05:58:34;4245.75;4245.75;4245.75
77239;PMS7003;66258;53.170;-2.240;2024-01-07T06:01:02;4237.50;4237.50;4237.50
77239;PMS7003;66258;53.170;-2.240;2024-01-07T06:03:29;4245.75;4245.75;4245.75
77239;PMS7003;66258;53.170;-2.240;2024-01-07T06:05:57;4121.00;4121.00;4121.00
77239;PMS7003;66258;53.170;-2.240;2024-01-07T06:08:25;4248.25;4248.25;4248.25
77239;PMS7003;66258;53.170;-2.240;2024-01-07T06:10:57;4245.75;4245.75;4245.75
77239;PMS7003;66258;53.170;-2.240;2024-01-07T06:13:25;4251.00;4251.00;4251.00
77239;PMS7003;66258;53.170;-2.240;2024-01-07T06:15:52;4128.75;4128.75;4128.75
77239;PMS7003;66258;53.170;-2.240;2024-01-07T06:18:20;4182.50;4182.50;4182.50
77239;PMS7003;66258;53.170;-2.240;2024-01-07T06:20:47;4243.00;4243.00;4243.00
77239;PMS7003;66258;53.170;-2.240;2024-01-07T06:23:16;4150.25;4150.00;4149.50
77239;PMS7003;66258;53.170;-2.240;2024-01-07T06:25:47;3772.33;3772.33;3771.67
77239;PMS7003;66258;53.170;-2.240;2024-01-07T06:28:19;3949.75;3949.00;3947.25
77239;PMS7003;66258;53.170;-2.240;2024-01-07T06:30:47;4124.67;4124.67;4123.67
77239;PMS7003;66258;53.170;-2.240;2024-01-07T06:33:15;4224.50;4224.50;4224.50
77239;PMS7003;66258;53.170;-2.240;2024-01-07T06:35:43;4228.00;4228.00;4228.00
77239;PMS7003;66258;53.170;-2.240;2024-01-07T06:38:10;4267.00;4267.00;4267.00
77239;PMS7003;66258;53.170;-2.240;2024-01-07T06:40:37;4146.33;4146.33;4146.33
77239;PMS7003;66258;53.170;-2.240;2024-01-07T06:43:05;4280.50;4280.50;4280.50
77239;PMS7003;66258;53.170;-2.240;2024-01-07T06:45:35;4288.75;4288.75;4288.75
77239;PMS7003;66258;53.170;-2.240;2024-01-07T06:48:03;4299.00;4299.00;4299.00
77239;PMS7003;66258;53.170;-2.240;2024-01-07T06:50:31;4288.75;4288.75;4288.75
77239;PMS7003;66258;53.170;-2.240;2024-01-07T06:52:58;4259.67;4259.67;4259.67
77239;PMS7003;66258;53.170;-2.240;2024-01-07T06:55:29;4264.00;4264.00;4264.00
77239;PMS7003;66258;53.170;-2.240;2024-01-07T06:57:57;4084.33;4084.33;4084.00
77239;PMS7003;66258;53.170;-2.240;2024-01-07T07:00:25;4253.25;4253.25;4253.25
77239;PMS7003;66258;53.170;-2.240;2024-01-07T07:02:55;4245.75;4245.75;4245.75
77239;PMS7003;66258;53.170;-2.240;2024-01-07T07:05:22;4087.67;4087.67;4087.00
77239;PMS7003;66258;53.170;-2.240;2024-01-07T07:07:49;4224.00;4224.00;4224.00
77239;PMS7003;66258;53.170;-2.240;2024-01-07T07:10:21;2363.25;2361.50;2355.50
77239;PMS7003;66258;53.170;-2.240;2024-01-07T07:12:48;3208.50;3208.00;3204.00
77239;PMS7003;66258;53.170;-2.240;2024-01-07T07:15:16;3419.00;3418.00;3414.33
77239;PMS7003;66258;53.170;-2.240;2024-01-07T07:17:44;3909.50;3909.25;3907.75
77239;PMS7003;66258;53.170;-2.240;2024-01-07T07:20:15;1782.33;1778.33;1769.33
77239;PMS7003;66258;53.170;-2.240;2024-01-07T07:22:43;2591.33;2590.67;2584.00
77239;PMS7003;66258;53.170;-2.240;2024-01-07T07:25:11;3595.00;3594.25;3592.25
77239;PMS7003;66258;53.170;-2.240;2024-01-07T07:27:42;3976.67;3976.67;3975.67
77239;PMS7003;66258;53.170;-2.240;2024-01-07T07:30:09;4187.25;4187.25;4187.25
77239;PMS7003;66258;53.170;-2.240;2024-01-07T07:32:38;4211.00;4211.00;4211.00
77239;PMS7003;66258;53.170;-2.240;2024-01-07T07:35:07;4213.50;4213.50;4213.50
77239;PMS7003;66258;53.170;-2.240;2024-01-07T07:37:35;4196.00;4196.00;4196.00
77239;PMS7003;66258;53.170;-2.240;2024-01-07T07:40:04;4177.50;4177.50;4177.50
77239;PMS7003;66258;53.170;-2.240;2024-01-07T07:42:34;3593.25;3593.00;3589.25
77239;PMS7003;66258;53.170;-2.240;2024-01-07T07:45:03;3800.50;3800.50;3798.25
77239;PMS7003;66258;53.170;-2.240;2024-01-07T07:47:32;4172.00;4172.00;4172.00
77239;PMS7003;66258;53.170;-2.240;2024-01-07T07:50:00;3949.00;3949.00;3947.67
77239;PMS7003;66258;53.170;-2.240;2024-01-07T07:52:31;1953.50;1953.00;1940.25
77239;PMS7003;66258;53.170;-2.240;2024-01-07T07:55:00;3565.00;3564.00;3561.50
77239;PMS7003;66258;53.170;-2.240;2024-01-07T07:57:27;3787.33;3787.33;3786.67
77239;PMS7003;66258;53.170;-2.240;2024-01-07T07:59:55;349.25;346.00;333.25
77239;PMS7003;66258;53.170;-2.240;2024-01-07T08:02:25;2513.33;2513.00;2505.33
77239;PMS7003;66258;53.170;-2.240;2024-01-07T08:04:52;2065.00;2056.00;2046.50
77239;PMS7003;66258;53.170;-2.240;2024-01-07T08:07:20;422.75;420.75;403.50
77239;PMS7003;66258;53.170;-2.240;2024-01-07T08:09:48;3519.50;3518.75;3516.50
77239;PMS7003;66258;53.170;-2.240;2024-01-07T08:12:17;4070.75;4070.75;4069.75
77239;PMS7003;66258;53.170;-2.240;2024-01-07T08:14:45;3092.00;3091.00;3085.00
77239;PMS7003;66258;53.170;-2.240;2024-01-07T08:17:13;3244.25;3243.00;3237.75
77239;PMS7003;66258;53.170;-2.240;2024-01-07T08:19:41;4038.25;4037.75;4036.50
77239;PMS7003;66258;53.170;-2.240;2024-01-07T08:22:08;4158.75;4158.75;4158.75
77239;PMS7003;66258;53.170;-2.240;2024-01-07T08:24:36;3363.60;3362.60;3353.00
77239;PMS7003;66258;53.170;-2.240;2024-01-07T08:27:04;1755.25;1748.75;1696.75
77239;PMS7003;66258;53.170;-2.240;2024-01-07T08:29:33;3678.20;3678.20;3668.00
77239;PMS7003;66258;53.170;-2.240;2024-01-07T08:32:00;4146.25;4146.25;4146.25
77239;PMS7003;66258;53.170;-2.240;2024-01-07T08:34:29;2159.40;2159.00;2121.80
77239;PMS7003;66258;53.170;-2.240;2024-01-07T08:36:56;4007.40;4007.20;4005.20
77239;PMS7003;66258;53.170;-2.240;2024-01-07T08:39:24;1936.75;1933.50;1923.25
77239;PMS7003;66258;53.170;-2.240;2024-01-07T08:41:51;3587.00;3584.60;3565.60
77239;PMS7003;66258;53.170;-2.240;2024-01-07T08:44:19;4113.50;4113.50;4113.50
77239;PMS7003;66258;53.170;-2.240;2024-01-07T08:46:49;4178.20;4178.20;4178.20
77239;PMS7003;66258;53.170;-2.240;2024-01-07T08:49:16;4161.50;4161.50;4161.50
77239;PMS7003;66258;53.170;-2.240;2024-01-07T08:51:44;4159.40;4159.40;4159.40
77239;PMS7003;66258;53.170;-2.240;2024-01-07T08:54:12;3547.50;3547.50;3544.25
77239;PMS7003;66258;53.170;-2.240;2024-01-07T08:56:38;4158.75;4158.75;4158.75
77239;PMS7003;66258;53.170;-2.240;2024-01-07T08:59:09;4149.20;4149.20;4149.20
77239;PMS7003;66258;53.170;-2.240;2024-01-07T09:01:37;4121.00;4121.00;4121.00
77239;PMS7003;66258;53.170;-2.240;2024-01-07T09:04:06;4117.67;4117.67;4117.67
77239;PMS7003;66258;53.170;-2.240;2024-01-07T09:06:34;4147.20;4147.20;4147.20
77239;PMS7003;66258;53.170;-2.240;2024-01-07T09:09:03;4053.80;4053.80;4053.80
77239;PMS7003;66258;53.170;-2.240;2024-01-07T09:11:31;4149.20;4149.20;4149.20
77239;PMS7003;66258;53.170;-2.240;2024-01-07T09:13:58;4121.00;4121.00;4121.00
77239;PMS7003;66258;53.170;-2.240;2024-01-07T09:16:26;4062.00;4062.00;4062.00
77239;PMS7003;66258;53.170;-2.240;2024-01-07T09:18:55;4051.75;4051.75;4051.75
77239;PMS7003;66258;53.170;-2.240;2024-01-07T09:21:24;4127.00;4127.00;4127.00
77239;PMS7003;66258;53.170;-2.240;2024-01-07T09:23:52;3724.33;3722.33;3719.67
77239;PMS7003;66258;53.170;-2.240;2024-01-07T09:26:20;4118.50;4118.50;4118.50
77239;PMS7003;66258;53.170;-2.240;2024-01-07T09:28:47;4091.00;4091.00;4091.00
77239;PMS7003;66258;53.170;-2.240;2024-01-07T09:31:17;1532.25;1527.00;1492.50
77239;PMS7003;66258;53.170;-2.240;2024-01-07T09:33:45;4020.25;4020.25;4020.25
77239;PMS7003;66258;53.170;-2.240;2024-01-07T09:36:14;4022.75;4022.75;4022.75
77239;PMS7003;66258;53.170;-2.240;2024-01-07T09:38:57;3995.00;3995.00;3995.00
77239;PMS7003;66258;53.170;-2.240;2024-01-07T09:41:24;4081.00;4081.00;4081.00
77239;PMS7003;66258;53.170;-2.240;2024-01-07T09:43:52;4006.00;4006.00;4006.00
77239;PMS7003;66258;53.170;-2.240;2024-01-07T09:46:20;3985.25;3985.25;3985.25
77239;PMS7003;66258;53.170;-2.240;2024-01-07T09:48:50;4020.25;4020.25;4020.25
77239;PMS7003;66258;53.170;-2.240;2024-01-07T09:51:19;4003.75;4003.75;4003.75
77239;PMS7003;66258;53.170;-2.240;2024-01-07T09:53:50;4061.75;4061.75;4061.75
77239;PMS7003;66258;53.170;-2.240;2024-01-07T09:56:36;4081.00;4081.00;4081.00
77239;PMS7003;66258;53.170;-2.240;2024-01-07T09:59:06;3973.50;3973.50;3973.50
77239;PMS7003;66258;53.170;-2.240;2024-01-07T10:01:34;4083.50;4083.50;4083.50
77239;PMS7003;66258;53.170;-2.240;2024-01-07T10:04:03;4069.25;4069.25;4069.25
77239;PMS7003;66258;53.170;-2.240;2024-01-07T10:06:31;4081.00;4081.00;4081.00
77239;PMS7003;66258;53.170;-2.240;2024-01-07T10:09:00;3987.50;3987.50;3987.50
77239;PMS7003;66258;53.170;-2.240;2024-01-07T10:11:28;4078.50;4078.50;4078.50
77239;PMS7003;66258;53.170;-2.240;2024-01-07T10:13:56;4064.25;4064.25;4064.25
77239;PMS7003;66258;53.170;-2.240;2024-01-07T10:16:23;4040.25;4040.25;4040.25
77239;PMS7003;66258;53.170;-2.240;2024-01-07T10:18:51;3971.00;3971.00;3971.00
77239;PMS7003;66258;53.170;-2.240;2024-01-07T10:21:19;3966.25;3966.25;3966.25
77239;PMS7003;66258;53.170;-2.240;2024-01-07T10:23:46;3961.50;3961.50;3961.50
77239;PMS7003;66258;53.170;-2.240;2024-01-07T10:26:16;4037.75;4037.75;4037.75
77239;PMS7003;66258;53.170;-2.240;2024-01-07T10:28:55;3975.50;3975.50;3975.50
77239;PMS7003;66258;53.170;-2.240;2024-01-07T10:31:23;3971.00;3971.00;3971.00
77239;PMS7003;66258;53.170;-2.240;2024-01-07T10:33:52;4042.50;4042.50;4042.50
77239;PMS7003;66258;53.170;-2.240;2024-01-07T10:36:22;3897.50;3897.50;3897.50
77239;PMS7003;66258;53.170;-2.240;2024-01-07T10:38:51;4040.25;4040.25;4040.25
77239;PMS7003;66258;53.170;-2.240;2024-01-07T10:41:21;3959.50;3959.50;3959.50
77239;PMS7003;66258;53.170;-2.240;2024-01-07T10:43:49;3906.75;3906.75;3906.75
77239;PMS7003;66258;53.170;-2.240;2024-01-07T10:46:19;4003.75;4003.75;4003.75
77239;PMS7003;66258;53.170;-2.240;2024-01-07T10:48:50;3893.00;3893.00;3893.00
77239;PMS7003;66258;53.170;-2.240;2024-01-07T10:51:27;3924.50;3924.50;3924.50
77239;PMS7003;66258;53.170;-2.240;2024-01-07T10:53:55;3897.50;3897.50;3897.50
77239;PMS7003;66258;53.170;-2.240;2024-01-07T10:56:25;3897.50;3897.50;3897.50
77239;PMS7003;66258;53.170;-2.240;2024-01-07T10:59:06;4001.25;4001.25;4001.25
77239;PMS7003;66258;53.170;-2.240;2024-01-07T11:01:34;3900.00;3900.00;3900.00
77239;PMS7003;66258;53.170;-2.240;2024-01-07T11:04:01;3966.25;3966.25;3966.25
77239;PMS7003;66258;53.170;-2.240;2024-01-07T11:06:38;3909.00;3909.00;3909.00
77239;PMS7003;66258;53.170;-2.240;2024-01-07T11:09:14;3897.50;3897.50;3897.50
77239;PMS7003;66258;53.170;-2.240;2024-01-07T11:11:51;3888.50;3888.50;3888.50
77239;PMS7003;66258;53.170;-2.240;2024-01-07T11:14:34;3860.00;3860.00;3860.00
77239;PMS7003;66258;53.170;-2.240;2024-01-07T11:17:04;3920.00;3920.00;3920.00
77239;PMS7003;66258;53.170;-2.240;2024-01-07T11:19:31;3877.25;3877.25;3877.25
77239;PMS7003;66258;53.170;-2.240;2024-01-07T11:24:50;3848.75;3848.75;3848.75
77239;PMS7003;66258;53.170;-2.240;2024-01-07T11:27:20;3897.50;3897.50;3897.50
77239;PMS7003;66258;53.170;-2.240;2024-01-07T11:29:54;3886.25;3886.25;3886.25
77239;PMS7003;66258;53.170;-2.240;2024-01-07T11:32:22;3897.50;3897.50;3897.50
77239;PMS7003;66258;53.170;-2.240;2024-01-07T11:34:57;3846.50;3846.50;3846.50
77239;PMS7003;66258;53.170;-2.240;2024-01-07T11:37:24;3875.00;3875.00;3875.00
77239;PMS7003;66258;53.170;-2.240;2024-01-07T11:39:55;3906.50;3906.50;3906.50
77239;PMS7003;66258;53.170;-2.240;2024-01-07T11:42:24;3851.00;3851.00;3851.00
77239;PMS7003;66258;53.170;-2.240;2024-01-07T11:44:52;3825.00;3825.00;3825.00
77239;PMS7003;66258;53.170;-2.240;2024-01-07T11:47:21;3855.50;3855.50;3855.50
77239;PMS7003;66258;53.170;-2.240;2024-01-07T11:49:50;3853.25;3853.25;3853.25
77239;PMS7003;66258;53.170;-2.240;2024-01-07T11:52:17;3866.75;3866.75;3866.75
77239;PMS7003;66258;53.170;-2.240;2024-01-07T11:54:46;3831.75;3831.75;3831.75
77239;PMS7003;66258;53.170;-2.240;2024-01-07T11:57:14;3825.00;3825.00;3825.00
77239;PMS7003;66258;53.170;-2.240;2024-01-07T11:59:43;3822.75;3822.75;3822.75
77239;PMS7003;66258;53.170;-2.240;2024-01-07T12:02:11;3807.75;3807.75;3807.75
77239;PMS7003;66258;53.170;-2.240;2024-01-07T12:04:39;3825.00;3825.00;3825.00
77239;PMS7003;66258;53.170;-2.240;2024-01-07T12:07:07;3825.00;3825.00;3825.00
77239;PMS7003;66258;53.170;-2.240;2024-01-07T12:09:34;3848.75;3848.75;3848.75
77239;PMS7003;66258;53.170;-2.240;2024-01-07T12:12:01;3816.00;3816.00;3816.00
77239;PMS7003;66258;53.170;-2.240;2024-01-07T12:14:29;3801.25;3801.25;3801.25
77239;PMS7003;66258;53.170;-2.240;2024-01-07T12:16:58;3803.25;3803.25;3803.25
77239;PMS7003;66258;53.170;-2.240;2024-01-07T12:19:26;3807.25;3807.25;3807.25
77239;PMS7003;66258;53.170;-2.240;2024-01-07T12:22:01;3816.00;3816.00;3816.00
77239;PMS7003;66258;53.170;-2.240;2024-01-07T12:24:30;3814.25;3814.25;3814.25
77239;PMS7003;66258;53.170;-2.240;2024-01-07T12:26:56;3908.75;3908.75;3908.75
77239;PMS7003;66258;53.170;-2.240;2024-01-07T12:29:31;3857.75;3857.75;3857.75
77239;PMS7003;66258;53.170;-2.240;2024-01-07T12:32:00;3816.00;3816.00;3816.00
77239;PMS7003;66258;53.170;-2.240;2024-01-07T12:34:27;3825.00;3825.00;3825.00
77239;PMS7003;66258;53.170;-2.240;2024-01-07T12:36:54;3829.50;3829.50;3829.50
77239;PMS7003;66258;53.170;-2.240;2024-01-07T12:39:22;3822.75;3822.75;3822.75
77239;PMS7003;66258;53.170;-2.240;2024-01-07T16:56:05;4011.25;4011.25;4011.25
77239;PMS7003;66258;53.170;-2.240;2024-01-07T16:58:33;4003.75;4003.75;4003.75
77239;PMS7003;66258;53.170;-2.240;2024-01-07T17:01:00;4003.75;4003.75;4003.75
77239;PMS7003;66258;53.170;-2.240;2024-01-07T17:03:27;3927.00;3927.00;3927.00
77239;PMS7003;66258;53.170;-2.240;2024-01-07T17:05:55;3997.00;3997.00;3997.00
77239;PMS7003;66258;53.170;-2.240;2024-01-07T17:08:26;3904.25;3904.25;3904.25
77239;PMS7003;66258;53.170;-2.240;2024-01-07T17:10:53;3968.75;3968.75;3968.75